createdAt,value
2022-11-18T00:00:54.756Z,6.30
2022-11-18T00:03:22.084Z,6.20
2022-11-18T00:05:56.907Z,6.30
2022-11-18T00:08:25.116Z,6.20
2022-11-18T00:10:52.246Z,6.20
2022-11-18T00:13:38.417Z,6.20
2022-11-18T00:16:11.254Z,6.00
2022-11-18T00:18:39.004Z,6.00
2022-11-18T00:21:11.527Z,5.90
2022-11-18T00:23:39.659Z,5.80
2022-11-18T00:26:12.642Z,5.60
2022-11-18T00:28:39.884Z,5.50
2022-11-18T00:31:12.055Z,5.50
2022-11-18T00:33:39.489Z,5.60
2022-11-18T00:36:09.267Z,5.60
2022-11-18T00:38:36.303Z,5.70
2022-11-18T00:41:11.927Z,5.80
2022-11-18T00:43:39.518Z,5.70
2022-11-18T00:46:09.815Z,5.70
2022-11-18T00:48:37.394Z,5.80
2022-11-18T00:51:16.685Z,5.80
2022-11-18T00:53:49.635Z,5.80
2022-11-18T00:56:16.755Z,5.70
2022-11-18T00:58:46.041Z,5.80
2022-11-18T01:01:13.033Z,5.80
2022-11-18T01:03:40.014Z,5.80
2022-11-18T01:06:06.999Z,5.90
2022-11-18T01:08:34.225Z,5.90
2022-11-18T01:11:21.099Z,5.90
2022-11-18T01:13:52.557Z,5.80
2022-11-18T01:16:21.183Z,5.90
2022-11-18T01:18:48.495Z,5.90
2022-11-18T01:21:16.014Z,5.70
2022-11-18T01:23:45.567Z,5.60
2022-11-18T01:26:16.974Z,5.50
2022-11-18T01:28:44.849Z,5.40
2022-11-18T01:31:18.631Z,5.50
2022-11-18T01:33:46.905Z,5.50
2022-11-18T01:36:19.201Z,5.60
2022-11-18T01:38:46.358Z,5.70
2022-11-18T01:41:14.256Z,5.70
2022-11-18T01:43:57.512Z,5.70
2022-11-18T01:46:26.774Z,5.80
2022-11-18T01:49:11.531Z,5.80
2022-11-18T01:51:46.926Z,5.80
2022-11-18T01:54:22.835Z,5.90
2022-11-18T01:56:54.033Z,5.80
2022-11-18T01:59:27.496Z,5.80
2022-11-18T02:01:59.858Z,5.70
2022-11-18T02:04:28.020Z,5.70
2022-11-18T02:06:57.097Z,5.80
2022-11-18T02:09:24.033Z,5.80
2022-11-18T02:11:51.454Z,5.70
2022-11-18T02:14:25.984Z,5.70
2022-11-18T02:17:32.983Z,5.70
2022-11-18T02:20:37.824Z,5.80
2022-11-18T02:23:41.638Z,5.80
2022-11-18T02:27:02.664Z,5.80
2022-11-18T02:29:39.820Z,5.80
2022-11-18T02:32:22.740Z,5.70
2022-11-18T02:35:16.185Z,5.70
2022-11-18T02:37:58.858Z,5.70
2022-11-18T02:40:36.973Z,5.70
2022-11-18T02:43:09.968Z,5.70
2022-11-18T02:45:43.278Z,5.70
2022-11-18T02:48:11.704Z,5.80
2022-11-18T02:50:41.598Z,5.80
2022-11-18T02:53:15.820Z,5.80
2022-11-18T02:55:44.489Z,5.80
2022-11-18T02:58:12.665Z,5.80
2022-11-18T03:00:47.917Z,5.80
2022-11-18T03:03:32.055Z,5.90
2022-11-18T03:06:41.694Z,5.90
2022-11-18T03:09:36.886Z,5.90
2022-11-18T03:12:46.860Z,5.90
2022-11-18T03:15:47.851Z,5.90
2022-11-18T03:18:33.990Z,5.90
2022-11-18T03:21:28.807Z,5.90
2022-11-18T03:24:03.969Z,5.90
2022-11-18T03:26:36.423Z,5.90
2022-11-18T03:29:32.935Z,5.90
2022-11-18T03:32:11.672Z,5.90
2022-11-18T03:34:44.123Z,6.00
2022-11-18T03:37:14.637Z,6.00
2022-11-18T03:39:46.524Z,6.00
2022-11-18T03:42:24.098Z,6.00
2022-11-18T03:44:55.975Z,6.00
2022-11-18T03:47:53.773Z,6.00
2022-11-18T03:50:26.084Z,6.00
2022-11-18T03:52:54.880Z,6.00
2022-11-18T03:55:26.685Z,6.00
2022-11-18T03:58:30.233Z,6.00
2022-11-18T04:01:04.570Z,6.10
2022-11-18T04:03:31.735Z,6.10
2022-11-18T04:06:15.058Z,6.20
2022-11-18T04:08:46.436Z,6.20
2022-11-18T04:11:42.148Z,6.30
2022-11-18T04:14:10.520Z,6.30
2022-11-18T04:16:42.630Z,6.40
2022-11-18T04:19:09.742Z,6.50
2022-11-18T04:21:36.951Z,6.60
2022-11-18T04:24:04.143Z,6.60
2022-11-18T04:26:31.682Z,6.60
2022-11-18T04:28:58.657Z,6.60
2022-11-18T04:31:25.648Z,6.60
2022-11-18T04:33:52.594Z,6.60
2022-11-18T04:36:20.102Z,6.70
2022-11-18T04:38:47.378Z,6.70
2022-11-18T04:41:14.445Z,6.70
2022-11-18T04:43:42.469Z,6.80
2022-11-18T04:46:09.423Z,6.90
2022-11-18T04:48:36.510Z,7.00
2022-11-18T04:51:05.264Z,7.10
2022-11-18T04:53:32.759Z,7.10
2022-11-18T04:56:17.994Z,7.10
2022-11-18T04:58:44.974Z,7.20
2022-11-18T05:01:11.914Z,7.20
2022-11-18T05:03:38.883Z,7.20
2022-11-18T05:06:06.424Z,7.20
2022-11-18T05:08:33.424Z,7.20
2022-11-18T05:11:20.296Z,7.20
2022-11-18T05:13:47.284Z,7.10
2022-11-18T05:16:14.439Z,7.10
2022-11-18T05:18:41.546Z,7.00
2022-11-18T05:21:08.479Z,7.00
2022-11-18T05:23:35.453Z,7.00
2022-11-18T05:26:10.197Z,7.00
2022-11-18T05:28:37.930Z,7.00
2022-11-18T05:31:09.671Z,7.00
2022-11-18T05:33:36.981Z,7.10
2022-11-18T05:36:09.558Z,7.10
2022-11-18T05:38:37.161Z,7.10
2022-11-18T05:41:04.530Z,7.10
2022-11-18T05:43:33.347Z,7.10
2022-11-18T05:46:00.526Z,7.10
2022-11-18T05:48:27.941Z,7.20
2022-11-18T05:50:55.487Z,7.20
2022-11-18T05:53:24.911Z,7.20
2022-11-18T05:56:21.926Z,7.20
2022-11-18T05:58:49.183Z,7.10
2022-11-18T06:01:23.981Z,7.20
2022-11-18T06:03:51.513Z,7.20
2022-11-18T06:06:22.037Z,7.20
2022-11-18T06:09:02.685Z,7.20
2022-11-18T06:11:35.959Z,7.10
2022-11-18T06:14:12.563Z,7.10
2022-11-18T06:16:44.445Z,7.10
2022-11-18T06:19:11.533Z,7.10
2022-11-18T06:21:38.547Z,7.10
2022-11-18T06:24:07.303Z,7.10
2022-11-18T06:26:34.302Z,7.10
2022-11-18T06:29:01.491Z,7.10
2022-11-18T06:31:28.651Z,7.10
2022-11-18T06:33:55.583Z,7.10
2022-11-18T06:36:22.531Z,7.10
2022-11-18T06:38:49.674Z,7.20
2022-11-18T06:41:16.629Z,7.20
2022-11-18T06:43:43.696Z,7.20
2022-11-18T06:46:32.025Z,7.20
2022-11-18T06:48:59.579Z,7.20
2022-11-18T06:51:27.107Z,7.10
2022-11-18T06:53:54.679Z,7.10
2022-11-18T06:56:22.827Z,7.10
2022-11-18T06:58:57.877Z,7.20
2022-11-18T07:01:32.354Z,7.20
2022-11-18T07:04:00.718Z,7.20
2022-11-18T07:06:31.842Z,7.20
2022-11-18T07:09:00.910Z,7.20
2022-11-18T07:11:28.522Z,7.30
2022-11-18T07:13:55.992Z,7.30
2022-11-18T07:16:25.555Z,7.30
2022-11-18T07:18:55.388Z,7.30
2022-11-18T07:21:27.723Z,7.40
2022-11-18T07:23:56.338Z,7.40
2022-11-18T07:26:23.963Z,7.40
2022-11-18T07:28:51.322Z,7.50
2022-11-18T07:31:20.541Z,7.50
2022-11-18T07:33:50.544Z,7.50
2022-11-18T07:36:23.429Z,7.60
2022-11-18T07:38:52.559Z,7.60
2022-11-18T07:41:21.649Z,7.60
2022-11-18T07:43:50.499Z,7.70
2022-11-18T07:46:43.840Z,7.70
2022-11-18T07:49:12.463Z,7.70
2022-11-18T07:51:40.863Z,7.80
2022-11-18T07:54:15.567Z,7.80
2022-11-18T07:56:42.589Z,7.80
2022-11-18T07:59:09.639Z,7.80
2022-11-18T08:01:36.735Z,7.90
2022-11-18T08:04:09.206Z,7.90
2022-11-18T08:06:37.077Z,7.90
2022-11-18T08:09:05.756Z,7.90
2022-11-18T08:11:32.921Z,7.90
2022-11-18T08:14:00.492Z,8.00
2022-11-18T08:16:27.941Z,8.00
2022-11-18T08:18:55.342Z,8.00
2022-11-18T08:21:23.422Z,8.00
2022-11-18T08:23:52.108Z,8.00
2022-11-18T08:26:19.668Z,8.00
2022-11-18T08:28:47.195Z,8.00
2022-11-18T08:31:22.879Z,7.90
2022-11-18T08:33:50.032Z,7.80
2022-11-18T08:36:20.653Z,7.80
2022-11-18T08:38:47.773Z,7.80
2022-11-18T08:41:17.871Z,7.80
2022-11-18T08:43:45.068Z,7.80
2022-11-18T08:46:12.530Z,7.80
2022-11-18T08:48:39.521Z,7.80
2022-11-18T08:51:06.881Z,7.80
2022-11-18T08:53:33.900Z,7.80
2022-11-18T08:56:02.064Z,7.80
2022-11-18T08:58:29.258Z,7.80
2022-11-18T09:00:56.381Z,7.80
2022-11-18T09:03:23.923Z,7.80
2022-11-18T09:05:51.127Z,7.90
2022-11-18T09:08:18.352Z,7.80
2022-11-18T09:10:47.680Z,7.90
2022-11-18T09:16:03.062Z,8.00
2022-11-18T09:18:30.724Z,8.00
2022-11-18T09:20:59.259Z,8.10
2022-11-18T09:23:26.804Z,8.20
2022-11-18T09:26:05.758Z,8.30
2022-11-18T09:28:33.280Z,8.40
2022-11-18T09:31:30.669Z,8.40
2022-11-18T09:34:01.159Z,8.40
2022-11-18T09:36:28.935Z,8.40
2022-11-18T09:38:56.188Z,8.50
2022-11-18T09:41:50.128Z,8.50
2022-11-18T09:44:31.282Z,8.50
2022-11-18T09:47:23.085Z,8.60
2022-11-18T09:49:50.207Z,8.70
2022-11-18T09:52:36.149Z,8.80
2022-11-18T09:55:12.528Z,8.90
2022-11-18T09:57:40.448Z,8.90
2022-11-18T10:00:19.243Z,8.90
2022-11-18T10:03:07.995Z,9.00
2022-11-18T10:05:52.738Z,9.00
2022-11-18T10:08:50.103Z,9.10
2022-11-18T10:11:23.393Z,9.10
2022-11-18T10:14:28.904Z,9.20
2022-11-18T10:17:24.271Z,9.30
2022-11-18T10:20:20.413Z,9.40
2022-11-18T10:22:58.856Z,9.40
2022-11-18T10:25:26.333Z,9.50
2022-11-18T10:27:53.363Z,9.50
2022-11-18T10:30:23.094Z,9.50
2022-11-18T10:33:02.017Z,9.50
2022-11-18T10:35:39.843Z,9.50
2022-11-18T10:38:17.989Z,9.60
2022-11-18T10:41:05.629Z,9.70
2022-11-18T10:43:53.079Z,9.80
2022-11-18T10:46:32.214Z,9.90
2022-11-18T10:49:17.473Z,10.00
2022-11-18T10:51:46.967Z,10.20
2022-11-18T10:54:24.107Z,10.40
2022-11-18T10:57:08.278Z,10.60
2022-11-18T10:59:56.887Z,10.80
2022-11-18T11:02:33.827Z,10.90
2022-11-18T11:05:05.112Z,11.00
2022-11-18T11:07:37.010Z,11.10
2022-11-18T11:10:07.248Z,11.10
2022-11-18T11:12:47.209Z,11.10
2022-11-18T11:15:19.775Z,11.10
2022-11-18T11:18:13.892Z,11.20
2022-11-18T11:20:41.374Z,11.30
2022-11-18T11:23:15.678Z,11.30
2022-11-18T11:29:08.155Z,11.30
2022-11-18T11:32:00.887Z,11.30
2022-11-18T11:34:57.153Z,11.10
2022-11-18T11:38:00.908Z,10.80
2022-11-18T11:41:00.009Z,10.70
2022-11-18T11:43:46.810Z,10.70
2022-11-18T11:47:21.700Z,10.80
2022-11-18T11:50:08.929Z,10.80
2022-11-18T11:53:24.805Z,10.90
2022-11-18T11:59:32.742Z,10.80
2022-11-18T12:02:17.992Z,10.90
2022-11-18T12:05:16.970Z,10.90
2022-11-18T12:08:16.508Z,11.00
2022-11-18T12:10:43.471Z,11.20
2022-11-18T12:13:47.848Z,11.20
2022-11-18T12:16:41.024Z,11.20
2022-11-18T12:19:20.236Z,11.20
2022-11-18T12:22:00.615Z,11.10
2022-11-18T12:24:45.737Z,11.20
2022-11-18T12:27:14.643Z,11.50
2022-11-18T12:29:59.269Z,11.70
2022-11-18T12:32:42.566Z,11.80
2022-11-18T12:35:30.730Z,11.90
2022-11-18T12:37:59.823Z,11.90
2022-11-18T12:40:52.802Z,11.90
2022-11-18T12:43:46.975Z,11.80
2022-11-18T12:46:52.385Z,11.80
2022-11-18T12:49:42.360Z,11.80
2022-11-18T12:52:48.625Z,11.70
2022-11-18T12:55:20.978Z,11.70
2022-11-18T12:57:48.155Z,11.70
2022-11-18T13:00:53.579Z,11.60
2022-11-18T13:03:26.272Z,11.70
2022-11-18T13:06:02.401Z,11.60
2022-11-18T13:08:32.647Z,11.50
2022-11-18T13:11:43.749Z,11.40
2022-11-18T13:14:44.373Z,11.30
2022-11-18T13:17:55.248Z,11.40
2022-11-18T13:20:31.600Z,11.30
2022-11-18T13:23:20.427Z,11.30
2022-11-18T13:25:49.234Z,11.30
2022-11-18T13:28:29.230Z,11.00
2022-11-18T13:31:52.568Z,10.90
2022-11-18T13:34:22.950Z,10.80
2022-11-18T13:36:51.595Z,10.60
2022-11-18T13:39:26.407Z,10.40
2022-11-18T13:42:29.983Z,10.30
2022-11-18T13:45:04.090Z,10.10
2022-11-18T13:48:08.425Z,10.00
2022-11-18T13:50:41.649Z,9.90
2022-11-18T13:53:41.297Z,9.90
2022-11-18T13:56:17.741Z,9.80
2022-11-18T13:59:18.092Z,9.80
2022-11-18T14:01:45.717Z,9.70
2022-11-18T14:04:22.733Z,9.50
2022-11-18T14:06:50.657Z,9.40
2022-11-18T14:09:27.573Z,9.30
2022-11-18T14:12:29.284Z,9.30
2022-11-18T14:15:33.335Z,9.10
2022-11-18T14:18:02.337Z,9.00
2022-11-18T14:20:31.126Z,8.90
2022-11-18T14:23:01.780Z,8.90
2022-11-18T14:25:35.554Z,8.90
2022-11-18T14:28:30.871Z,8.90
2022-11-18T14:31:20.424Z,8.90
2022-11-18T14:34:24.752Z,8.90
2022-11-18T14:36:53.597Z,8.80
2022-11-18T14:39:32.047Z,8.90
2022-11-18T14:41:59.917Z,8.80
2022-11-18T14:44:28.199Z,8.80
2022-11-18T14:46:57.786Z,8.70
2022-11-18T14:49:26.284Z,8.70
2022-11-18T14:51:54.779Z,8.70
2022-11-18T14:54:26.755Z,8.60
2022-11-18T14:57:00.881Z,8.60
2022-11-18T14:59:27.928Z,8.50
2022-11-18T15:01:56.692Z,8.40
2022-11-18T15:04:25.393Z,8.40
2022-11-18T15:06:52.338Z,8.40
2022-11-18T15:09:21.729Z,8.30
2022-11-18T15:11:48.664Z,8.30
2022-11-18T15:14:16.080Z,8.20
2022-11-18T15:16:43.206Z,8.20
2022-11-18T15:19:15.379Z,8.20
2022-11-18T15:21:43.246Z,8.20
2022-11-18T15:24:10.331Z,8.00
2022-11-18T15:26:44.211Z,8.00
2022-11-18T15:29:23.458Z,8.00
2022-11-18T15:31:50.551Z,8.00
2022-11-18T15:34:20.637Z,7.90
2022-11-18T15:36:48.454Z,7.90
2022-11-18T15:39:15.821Z,7.90
2022-11-18T15:41:45.800Z,7.90
2022-11-18T15:44:13.108Z,7.80
2022-11-18T15:46:40.325Z,7.80
2022-11-18T15:49:09.710Z,7.80
2022-11-18T15:51:37.259Z,7.80
2022-11-18T15:54:05.516Z,7.70
2022-11-18T15:56:33.896Z,7.60
2022-11-18T15:59:11.733Z,7.50
2022-11-18T16:01:41.352Z,7.50
2022-11-18T16:04:10.314Z,7.40
2022-11-18T16:06:37.654Z,7.40
2022-11-18T16:09:06.415Z,7.30
2022-11-18T16:11:52.291Z,7.30
2022-11-18T16:14:21.323Z,7.20
2022-11-18T16:16:50.696Z,7.10
2022-11-18T16:19:19.877Z,7.00
2022-11-18T16:21:50.152Z,6.90
2022-11-18T16:24:23.263Z,6.80
2022-11-18T16:26:50.693Z,6.70
2022-11-18T16:29:18.810Z,6.60
2022-11-18T16:31:52.651Z,6.60
2022-11-18T16:34:27.066Z,6.60
2022-11-18T16:36:56.217Z,6.60
2022-11-18T16:39:26.132Z,6.60
2022-11-18T16:42:08.491Z,6.50
2022-11-18T16:44:36.717Z,6.50
2022-11-18T16:47:08.949Z,6.40
2022-11-18T16:49:39.632Z,6.40
2022-11-18T16:52:08.770Z,6.40
2022-11-18T16:54:41.027Z,6.30
2022-11-18T16:57:11.686Z,6.30
2022-11-18T16:59:38.624Z,6.30
2022-11-18T17:02:06.369Z,6.30
2022-11-18T17:04:36.338Z,6.30
2022-11-18T17:07:03.490Z,6.30
2022-11-18T17:09:30.917Z,6.20
2022-11-18T17:12:00.977Z,6.20
2022-11-18T17:14:30.036Z,6.20
2022-11-18T17:16:58.072Z,6.10
2022-11-18T17:19:28.864Z,6.10
2022-11-18T17:22:00.265Z,6.10
2022-11-18T17:24:27.419Z,6.10
2022-11-18T17:26:55.444Z,6.00
2022-11-18T17:29:22.614Z,6.00
2022-11-18T17:31:49.718Z,6.00
2022-11-18T17:34:17.537Z,5.90
2022-11-18T17:36:45.198Z,5.90
2022-11-18T17:39:13.336Z,5.80
2022-11-18T17:41:59.185Z,5.80
2022-11-18T17:44:29.328Z,5.70
2022-11-18T17:46:56.640Z,5.70
2022-11-18T17:49:24.281Z,5.60
2022-11-18T17:51:54.036Z,5.50
2022-11-18T17:54:22.795Z,5.50
2022-11-18T17:56:52.494Z,5.50
2022-11-18T17:59:20.214Z,5.50
2022-11-18T18:01:47.295Z,5.50
2022-11-18T18:04:15.449Z,5.50
2022-11-18T18:06:42.483Z,5.50
2022-11-18T18:09:09.406Z,5.50
2022-11-18T18:11:36.458Z,5.50
2022-11-18T18:14:13.593Z,5.40
2022-11-18T18:16:50.153Z,5.30
2022-11-18T18:19:20.032Z,5.30
2022-11-18T18:21:47.440Z,5.20
2022-11-18T18:24:23.617Z,5.20
2022-11-18T18:26:50.987Z,5.20
2022-11-18T18:29:18.225Z,5.20
2022-11-18T18:31:45.141Z,5.20
2022-11-18T18:34:16.417Z,5.20
2022-11-18T18:36:44.017Z,5.20
2022-11-18T18:39:11.161Z,5.20
2022-11-18T18:41:38.686Z,5.20
2022-11-18T18:44:06.800Z,5.10
2022-11-18T18:46:34.104Z,5.10
2022-11-18T18:49:12.773Z,5.00
2022-11-18T18:51:49.115Z,5.00
2022-11-18T18:54:18.735Z,5.00
2022-11-18T18:56:46.161Z,5.00
2022-11-18T18:59:13.303Z,4.90
2022-11-18T19:01:41.128Z,4.90
2022-11-18T19:04:13.247Z,4.90
2022-11-18T19:06:59.765Z,4.80
2022-11-18T19:09:27.407Z,4.70
2022-11-18T19:12:13.777Z,4.60
2022-11-18T19:14:41.176Z,4.60
2022-11-18T19:17:11.703Z,4.50
2022-11-18T19:19:59.314Z,4.50
2022-11-18T19:22:30.439Z,4.40
2022-11-18T19:25:01.665Z,4.40
2022-11-18T19:27:29.704Z,4.30
2022-11-18T19:29:56.880Z,4.30
2022-11-18T19:32:24.457Z,4.30
2022-11-18T19:34:51.466Z,4.20
2022-11-18T19:37:19.572Z,4.20
2022-11-18T19:39:46.492Z,4.10
2022-11-18T19:42:13.482Z,4.10
2022-11-18T19:44:40.484Z,4.10
2022-11-18T19:47:07.456Z,4.10
2022-11-18T19:49:34.627Z,4.10
2022-11-18T19:52:03.251Z,4.00
2022-11-18T19:54:32.551Z,4.00
2022-11-18T19:57:01.113Z,3.90
2022-11-18T19:59:29.794Z,3.90
2022-11-18T20:01:57.090Z,3.80
2022-11-18T20:04:24.073Z,3.90
2022-11-18T20:06:51.132Z,3.80
2022-11-18T20:09:18.566Z,3.80
2022-11-18T20:11:45.997Z,3.80
2022-11-18T20:14:13.304Z,3.80
2022-11-18T20:16:40.874Z,3.70
2022-11-18T20:19:10.954Z,3.70
2022-11-18T20:21:39.424Z,3.70
2022-11-18T20:24:07.657Z,3.70
2022-11-18T20:26:37.197Z,3.70
2022-11-18T20:29:05.575Z,3.70
2022-11-18T20:31:33.899Z,3.60
2022-11-18T20:34:01.980Z,3.70
2022-11-18T20:36:34.887Z,3.60
2022-11-18T20:39:16.100Z,3.60
2022-11-18T20:42:03.887Z,3.60
2022-11-18T20:44:30.773Z,3.60
2022-11-18T20:46:57.732Z,3.60
2022-11-18T20:49:24.972Z,3.60
2022-11-18T20:51:52.218Z,3.60
2022-11-18T20:54:19.328Z,3.60
2022-11-18T20:56:46.382Z,3.50
2022-11-18T20:59:13.846Z,3.50
2022-11-18T21:01:41.567Z,3.60
2022-11-18T21:04:11.755Z,3.50
2022-11-18T21:06:39.166Z,3.50
2022-11-18T21:09:06.453Z,3.50
2022-11-18T21:11:37.468Z,3.50
2022-11-18T21:14:25.612Z,3.50
2022-11-18T21:17:07.712Z,3.40
2022-11-18T21:19:34.787Z,3.40
2022-11-18T21:22:01.944Z,3.40
2022-11-18T21:24:31.853Z,3.30
2022-11-18T21:27:00.675Z,3.30
2022-11-18T21:29:30.640Z,3.30
2022-11-18T21:32:01.693Z,3.30
2022-11-18T21:34:29.956Z,3.20
2022-11-18T21:36:56.966Z,3.20
2022-11-18T21:39:24.801Z,3.20
2022-11-18T21:41:59.173Z,3.10
2022-11-18T21:44:28.362Z,3.10
2022-11-18T21:46:55.850Z,3.10
2022-11-18T21:49:23.206Z,3.00
2022-11-18T21:51:50.539Z,2.90
2022-11-18T21:54:18.681Z,2.90
2022-11-18T21:56:46.293Z,2.90
2022-11-18T21:59:13.270Z,2.90
2022-11-18T22:01:40.418Z,2.90
2022-11-18T22:04:07.615Z,2.90
2022-11-18T22:06:35.260Z,2.80
2022-11-18T22:09:04.571Z,2.80
2022-11-18T22:11:33.917Z,2.70
2022-11-18T22:14:01.022Z,2.70
2022-11-18T22:16:28.068Z,2.70
2022-11-18T22:19:00.392Z,2.80
2022-11-18T22:21:30.872Z,2.80
2022-11-18T22:23:59.808Z,2.70
2022-11-18T22:26:27.699Z,2.70
2022-11-18T22:28:56.921Z,2.70
2022-11-18T22:31:25.806Z,2.70
2022-11-18T22:33:53.837Z,2.70
2022-11-18T22:36:23.856Z,2.70
2022-11-18T22:38:51.508Z,2.70
2022-11-18T22:41:42.777Z,2.60
2022-11-18T22:44:10.875Z,2.60
2022-11-18T22:46:39.745Z,2.70
2022-11-18T22:49:08.135Z,2.70
2022-11-18T22:51:36.351Z,2.70
2022-11-18T22:54:36.663Z,2.70
2022-11-18T22:56:51.303Z,2.60
2022-11-18T22:59:18.735Z,2.60
2022-11-18T23:01:47.009Z,2.60
2022-11-18T23:04:14.067Z,2.70
2022-11-18T23:06:41.117Z,2.60
2022-11-18T23:09:09.394Z,2.60
2022-11-18T23:11:54.833Z,2.60
2022-11-18T23:14:21.720Z,2.50
2022-11-18T23:16:48.770Z,2.60
2022-11-18T23:19:22.284Z,2.60
2022-11-18T23:21:49.745Z,2.50
2022-11-18T23:24:18.958Z,2.50
2022-11-18T23:26:46.407Z,2.50
2022-11-18T23:29:14.280Z,2.50
2022-11-18T23:31:45.248Z,2.50
2022-11-18T23:34:14.200Z,2.40
2022-11-18T23:36:41.827Z,2.50
2022-11-18T23:39:09.136Z,2.50
2022-11-18T23:41:36.293Z,2.40
2022-11-18T23:44:03.575Z,2.40
2022-11-18T23:46:30.651Z,2.40
2022-11-18T23:48:57.861Z,2.30
2022-11-18T23:51:25.778Z,2.30
2022-11-18T23:53:55.774Z,2.30
2022-11-18T23:56:25.389Z,2.30
2022-11-18T23:58:54.262Z,2.30
